Time;durP1;ratioP1;P1;durP2;ratioP2;P2;SDS_P1;SDS_P2;PMS_P1;PMS_P2;Temp;Humidity;BMP_temperature;BMP_pressure;BME280_temperature;BME280_humidity;BME280_pressure;Samples;Min_cycle;Max_cycle;Signal;HPM_P1;HPM_P2
2021/04/10 00:02:22;;;;;;;7.60;3.77;;;10.80;32.40;;;;;;5051284;28;40208;-77
2021/04/10 00:04:50;;;;;;;6.83;3.53;;;10.80;32.50;;;;;;5057316;28;38321;-78
2021/04/10 00:07:17;;;;;;;7.47;4.50;;;10.70;32.80;;;;;;5073501;28;38060;-77
2021/04/10 00:09:45;;;;;;;5.47;3.47;;;10.60;33.00;;;;;;5038804;28;36533;-77
2021/04/10 00:12:12;;;;;;;4.17;3.57;;;10.60;33.20;;;;;;5045555;28;39895;-77
2021/04/10 00:14:42;;;;;;;4.80;3.53;;;10.50;33.50;;;;;;5055148;28;38331;-77
2021/04/10 00:17:09;;;;;;;7.20;3.53;;;10.40;33.50;;;;;;5060960;28;38158;-77
2021/04/10 00:19:39;;;;;;;5.13;4.17;;;10.30;33.90;;;;;;5073046;28;37323;-78
2021/04/10 00:22:07;;;;;;;7.80;3.90;;;10.20;34.80;;;;;;5073236;28;39688;-78
2021/04/10 00:24:34;;;;;;;6.47;3.63;;;10.10;35.10;;;;;;5072645;28;39283;-77
2021/04/10 00:27:01;;;;;;;6.60;4.37;;;10.10;35.20;;;;;;5067184;28;37934;-77
2021/04/10 00:29:28;;;;;;;7.20;4.17;;;10.10;36.10;;;;;;5054534;28;37014;-77
2021/04/10 00:31:55;;;;;;;6.07;3.63;;;10.10;35.60;;;;;;5070570;28;39530;-77
2021/04/10 00:34:22;;;;;;;7.03;4.10;;;10.20;35.90;;;;;;5052442;28;39968;-77
2021/04/10 00:36:50;;;;;;;5.10;4.10;;;10.20;35.90;;;;;;5053350;28;38897;-77
2021/04/10 00:39:18;;;;;;;6.17;3.80;;;10.30;36.00;;;;;;5054925;28;37849;-77
2021/04/10 00:41:45;;;;;;;10.17;4.47;;;10.30;35.70;;;;;;5052128;28;39903;-78
2021/04/10 00:44:14;;;;;;;5.57;4.00;;;10.40;35.60;;;;;;5052247;28;39869;-78
2021/04/10 00:46:41;;;;;;;4.70;3.90;;;10.40;35.50;;;;;;5052929;28;39163;-78
2021/04/10 00:49:08;;;;;;;8.23;4.93;;;10.40;35.80;;;;;;5045228;28;35738;-78
2021/04/10 00:51:35;;;;;;;5.93;4.40;;;10.40;36.10;;;;;;5052954;28;39670;-78
2021/04/10 00:54:04;;;;;;;4.30;3.50;;;10.30;36.00;;;;;;5034680;28;38679;-78
2021/04/10 00:56:31;;;;;;;6.33;4.20;;;10.30;36.00;;;;;;5049002;28;38151;-78
2021/04/10 00:59:00;;;;;;;8.03;4.63;;;10.30;36.20;;;;;;5045647;28;38130;-79
2021/04/10 01:01:28;;;;;;;5.80;3.80;;;10.40;36.10;;;;;;5024732;28;39842;-78
2021/04/10 01:03:59;;;;;;;7.30;4.30;;;10.40;35.90;;;;;;5049724;28;39759;-77
2021/04/10 01:06:27;;;;;;;9.23;3.40;;;10.40;36.10;;;;;;5033533;28;37022;-80
2021/04/10 01:08:54;;;;;;;8.37;3.77;;;10.40;36.10;;;;;;5051370;28;37141;-80
2021/04/10 01:11:36;;;;;;;5.43;3.50;;;10.50;36.20;;;;;;5032660;28;41537;-79
2021/04/10 01:14:12;;;;;;;4.83;4.10;;;10.40;36.10;;;;;;5033301;28;37649;-80
2021/04/10 01:16:43;;;;;;;4.83;3.57;;;10.40;36.20;;;;;;5060736;28;38066;-81
2021/04/10 01:19:32;;;;;;;5.50;3.50;;;10.50;36.20;;;;;;5036252;28;38011;-81
2021/04/10 01:22:07;;;;;;;4.33;2.97;;;10.40;36.10;;;;;;5064471;28;39281;-79
2021/04/10 01:24:49;;;;;;;4.57;3.07;;;10.50;36.90;;;;;;5033420;28;38050;-79
2021/04/10 01:27:39;;;;;;;4.67;3.07;;;10.50;35.70;;;;;;5047682;28;37637;-80
2021/04/10 01:30:11;;;;;;;5.03;2.67;;;10.60;34.80;;;;;;5027440;28;35943;-78
2021/04/10 01:32:44;;;;;;;4.90;3.10;;;10.60;34.20;;;;;;5034027;28;38365;-78
2021/04/10 01:35:14;;;;;;;3.53;2.30;;;10.60;34.20;;;;;;5033088;28;38780;-78
2021/04/10 01:37:54;;;;;;;3.50;2.13;;;10.70;33.40;;;;;;5032960;28;37307;-78
2021/04/10 01:40:23;;;;;;;5.53;2.13;;;10.80;32.70;;;;;;5040748;28;37195;-78
2021/04/10 01:42:54;;;;;;;2.00;1.40;;;10.90;32.70;;;;;;5016328;28;38331;-79
2021/04/10 01:45:23;;;;;;;2.90;1.63;;;11.00;31.10;;;;;;5031088;28;37845;-78
2021/04/10 01:47:55;;;;;;;1.40;1.10;;;11.20;30.30;;;;;;5056609;28;38859;-80
2021/04/10 01:50:23;;;;;;;3.07;1.30;;;11.30;30.00;;;;;;5052254;28;37776;-79
2021/04/10 01:52:54;;;;;;;1.60;1.00;;;11.40;29.90;;;;;;5048969;28;39769;-78
2021/04/10 01:55:23;;;;;;;1.90;1.10;;;11.60;29.60;;;;;;5035778;28;38496;-79
2021/04/10 01:57:53;;;;;;;2.90;1.53;;;11.70;29.30;;;;;;5048049;28;38408;-79
2021/04/10 02:00:25;;;;;;;1.70;1.13;;;11.80;29.20;;;;;;5033341;28;38019;-79
2021/04/10 02:02:57;;;;;;;1.47;0.93;;;11.90;29.30;;;;;;5033367;28;38776;-80
2021/04/10 02:05:27;;;;;;;1.83;1.13;;;12.00;29.10;;;;;;5050020;28;39071;-78
2021/04/10 02:08:08;;;;;;;1.37;1.00;;;12.00;29.00;;;;;;5036664;28;36851;-78
2021/04/10 02:10:36;;;;;;;4.60;1.30;;;12.00;28.80;;;;;;5029707;28;36186;-79
2021/04/10 02:13:13;;;;;;;2.20;1.30;;;12.00;28.90;;;;;;5012977;28;38798;-78
2021/04/10 02:15:45;;;;;;;1.43;1.30;;;12.00;29.00;;;;;;5039812;28;38316;-79
2021/04/10 02:18:18;;;;;;;3.03;1.30;;;12.00;29.00;;;;;;5036572;28;38828;-78
2021/04/10 02:20:47;;;;;;;3.13;1.23;;;12.00;29.00;;;;;;5023123;28;37273;-78
2021/04/10 02:23:15;;;;;;;2.90;1.80;;;12.00;28.80;;;;;;5045520;28;38540;-77
2021/04/10 02:25:52;;;;;;;1.40;1.00;;;12.00;28.80;;;;;;5033837;28;37636;-77
2021/04/10 02:28:20;;;;;;;1.63;1.13;;;12.10;28.40;;;;;;5027963;28;36741;-77
2021/04/10 02:30:48;;;;;;;1.47;1.10;;;12.10;28.40;;;;;;5037967;28;37843;-77
2021/04/10 02:33:21;;;;;;;1.83;1.43;;;12.20;28.20;;;;;;5039090;28;40772;-77
2021/04/10 02:35:52;;;;;;;1.73;1.10;;;12.20;28.30;;;;;;5058242;28;38483;-78
2021/04/10 02:38:23;;;;;;;2.23;0.80;;;12.20;28.30;;;;;;5047589;28;37170;-78
2021/04/10 02:41:00;;;;;;;4.40;1.40;;;12.20;28.10;;;;;;5037293;28;36515;-77
2021/04/10 02:43:30;;;;;;;1.60;1.10;;;12.10;28.40;;;;;;5036544;28;40124;-79
2021/04/10 02:46:02;;;;;;;4.67;1.07;;;12.00;28.20;;;;;;5037979;28;39964;-78
2021/04/10 02:48:37;;;;;;;2.07;1.00;;;12.00;28.20;;;;;;5035923;28;38099;-78
2021/04/10 02:51:06;;;;;;;2.93;1.30;;;12.00;28.30;;;;;;5039279;28;36842;-78
2021/04/10 02:53:38;;;;;;;4.30;1.10;;;12.00;28.20;;;;;;5032747;28;39997;-77
2021/04/10 02:56:07;;;;;;;1.80;0.90;;;12.10;28.00;;;;;;5030390;28;39502;-78
2021/04/10 02:58:39;;;;;;;2.93;1.20;;;12.10;28.00;;;;;;5035478;28;37794;-78
2021/04/10 03:01:09;;;;;;;4.53;1.60;;;12.10;28.40;;;;;;5028651;28;36735;-78
2021/04/10 03:03:38;;;;;;;4.03;1.20;;;12.10;28.20;;;;;;5021657;28;38393;-78
2021/04/10 03:06:08;;;;;;;1.60;0.90;;;12.20;28.10;;;;;;5038364;28;38234;-79
2021/04/10 03:08:37;;;;;;;1.73;0.80;;;12.20;28.10;;;;;;5032176;28;38329;-79
2021/04/10 03:11:10;;;;;;;1.13;0.80;;;12.20;28.00;;;;;;5024390;28;36172;-80
2021/04/10 03:13:39;;;;;;;2.47;1.40;;;12.20;28.00;;;;;;5020483;28;38603;-80
2021/04/10 03:16:15;;;;;;;2.70;1.10;;;12.10;28.20;;;;;;5034387;28;38651;-80
2021/04/10 03:18:44;;;;;;;3.87;1.20;;;12.10;28.10;;;;;;5034166;28;37429;-79
2021/04/10 03:21:14;;;;;;;2.77;0.87;;;12.10;28.20;;;;;;5016894;28;35768;-79
2021/04/10 03:23:51;;;;;;;1.73;1.00;;;12.10;28.30;;;;;;5028576;28;38321;-78
2021/04/10 03:26:21;;;;;;;3.43;1.50;;;12.00;28.40;;;;;;5030491;28;38597;-78
2021/04/10 03:28:52;;;;;;;2.10;1.17;;;11.90;28.40;;;;;;5027904;28;37487;-80
2021/04/10 03:31:21;;;;;;;2.73;1.23;;;11.80;28.40;;;;;;5030686;28;36849;-80
2021/04/10 03:33:48;;;;;;;2.50;0.90;;;11.70;28.60;;;;;;5035506;28;40981;-80
2021/04/10 03:36:16;;;;;;;5.50;1.17;;;11.70;28.50;;;;;;5037151;28;38588;-80
2021/04/10 03:38:46;;;;;;;2.83;1.20;;;11.70;28.60;;;;;;5034294;28;36983;-80
2021/04/10 03:41:16;;;;;;;2.30;1.37;;;11.70;29.10;;;;;;5030936;28;35910;-79
2021/04/10 03:43:44;;;;;;;1.80;1.00;;;11.70;28.60;;;;;;5023735;28;39656;-79
2021/04/10 03:46:12;;;;;;;2.60;1.30;;;11.70;28.60;;;;;;5034231;28;38970;-78
2021/04/10 03:48:41;;;;;;;1.93;1.20;;;11.70;28.60;;;;;;5034148;28;37562;-78
2021/04/10 03:51:17;;;;;;;4.27;1.20;;;11.80;29.20;;;;;;5034498;28;37078;-79
2021/04/10 03:53:49;;;;;;;1.77;1.00;;;11.80;28.60;;;;;;5031070;28;39306;-80
2021/04/10 03:56:19;;;;;;;3.60;1.27;;;11.80;28.60;;;;;;5015613;28;38911;-79
2021/04/10 03:58:50;;;;;;;4.30;1.00;;;11.90;28.70;;;;;;5034700;28;38215;-79
2021/04/10 04:01:28;;;;;;;1.70;0.90;;;11.90;28.70;;;;;;5037529;28;37051;-79
2021/04/10 04:03:57;;;;;;;2.43;1.00;;;12.00;29.70;;;;;;5039461;28;41487;-78
2021/04/10 04:06:24;;;;;;;1.40;1.00;;;12.00;29.40;;;;;;5035929;28;37811;-78
2021/04/10 04:08:51;;;;;;;2.90;0.90;;;12.00;30.10;;;;;;5038666;28;38847;-79
2021/04/10 04:11:21;;;;;;;4.93;1.33;;;12.00;30.50;;;;;;5051700;28;36924;-79
2021/04/10 04:13:49;;;;;;;2.40;0.90;;;12.00;31.50;;;;;;5039033;28;38248;-79
2021/04/10 04:16:16;;;;;;;1.20;0.90;;;12.00;31.80;;;;;;5052728;28;39222;-78
2021/04/10 04:18:43;;;;;;;1.90;0.90;;;11.90;32.90;;;;;;5054626;28;38779;-78
2021/04/10 04:21:15;;;;;;;3.37;1.63;;;11.90;32.70;;;;;;5052143;28;37375;-78
2021/04/10 04:23:45;;;;;;;3.70;1.10;;;11.90;33.40;;;;;;5049644;28;39496;-78
2021/04/10 04:26:22;;;;;;;2.40;1.23;;;11.80;33.60;;;;;;5033665;28;38987;-79
2021/04/10 04:28:51;;;;;;;2.17;0.90;;;11.80;34.00;;;;;;5034184;28;38066;-78
2021/04/10 04:31:20;;;;;;;1.97;0.90;;;11.80;33.00;;;;;;5041249;28;38255;-79
2021/04/10 04:33:47;;;;;;;2.60;1.60;;;11.80;33.30;;;;;;5048375;28;39695;-78
2021/04/10 04:36:15;;;;;;;2.13;1.03;;;11.80;33.90;;;;;;5051200;28;39748;-77
2021/04/10 04:38:42;;;;;;;1.87;1.20;;;11.70;33.60;;;;;;5046608;28;37570;-77
2021/04/10 04:41:09;;;;;;;1.63;1.10;;;11.70;33.30;;;;;;5052921;28;38380;-78
2021/04/10 04:43:36;;;;;;;2.50;0.93;;;11.70;33.20;;;;;;5058945;28;39552;-78
2021/04/10 04:46:03;;;;;;;2.50;1.13;;;11.70;31.70;;;;;;5034126;28;38501;-78
2021/04/10 04:48:33;;;;;;;1.30;1.10;;;11.70;32.70;;;;;;5033482;28;36579;-79
2021/04/10 04:51:00;;;;;;;2.47;1.00;;;11.70;31.20;;;;;;5051355;28;38017;-77
2021/04/10 04:53:30;;;;;;;4.00;1.30;;;11.70;32.10;;;;;;5051126;28;39854;-77
2021/04/10 04:56:00;;;;;;;1.90;1.20;;;11.70;31.70;;;;;;5016486;28;37772;-78
2021/04/10 04:58:27;;;;;;;3.87;1.23;;;11.80;30.50;;;;;;5051096;28;38859;-78
2021/04/10 05:00:54;;;;;;;3.00;0.90;;;11.90;30.70;;;;;;5050770;28;37113;-78
2021/04/10 05:03:21;;;;;;;2.00;1.00;;;11.80;30.60;;;;;;5033934;28;38334;-78
2021/04/10 05:05:48;;;;;;;2.43;1.10;;;11.80;30.80;;;;;;5060812;28;38987;-78
2021/04/10 05:08:15;;;;;;;1.53;0.83;;;11.80;30.50;;;;;;5072643;28;38833;-77
2021/04/10 05:10:43;;;;;;;2.17;0.90;;;11.80;31.00;;;;;;5072316;28;37000;-77
2021/04/10 05:13:10;;;;;;;1.73;1.20;;;11.80;32.10;;;;;;5058730;28;39464;-77
2021/04/10 05:15:37;;;;;;;4.30;2.50;;;11.80;32.80;;;;;;5055695;28;37896;-77
2021/04/10 05:18:05;;;;;;;2.90;1.20;;;11.80;32.80;;;;;;5038756;28;37758;-77
2021/04/10 05:20:38;;;;;;;2.40;1.00;;;11.70;33.40;;;;;;5048127;28;37150;-77
2021/04/10 05:23:05;;;;;;;4.03;1.20;;;11.70;34.00;;;;;;5057214;28;39698;-77
2021/04/10 05:25:35;;;;;;;1.77;1.00;;;11.60;34.00;;;;;;5023549;28;38802;-78
2021/04/10 05:28:03;;;;;;;3.40;1.10;;;11.60;34.40;;;;;;5018355;28;36816;-77
2021/04/10 05:30:30;;;;;;;1.37;1.00;;;11.50;34.50;;;;;;5043136;28;38014;-78
2021/04/10 05:32:57;;;;;;;3.20;1.37;;;11.50;35.30;;;;;;5034512;28;39586;-78
2021/04/10 05:35:24;;;;;;;2.03;0.97;;;11.50;35.40;;;;;;5046626;28;39049;-78
2021/04/10 05:37:51;;;;;;;2.77;1.37;;;11.50;35.90;;;;;;5039213;28;37720;-79
2021/04/10 05:40:18;;;;;;;2.43;1.20;;;11.50;36.70;;;;;;5017894;28;37200;-79
2021/04/10 05:42:45;;;;;;;2.30;1.23;;;11.50;37.60;;;;;;5052826;28;39956;-79
2021/04/10 05:45:14;;;;;;;2.37;1.23;;;11.40;38.30;;;;;;5046474;28;39755;-72
2021/04/10 05:47:41;;;;;;;1.17;0.90;;;11.40;39.00;;;;;;5055341;28;36861;-74
2021/04/10 05:50:09;;;;;;;1.57;1.13;;;11.40;40.20;;;;;;5056406;28;37248;-74
2021/04/10 05:52:36;;;;;;;2.10;1.20;;;11.40;40.30;;;;;;5074338;28;39688;-75
2021/04/10 05:55:04;;;;;;;5.57;1.43;;;11.40;40.70;;;;;;5074569;28;39405;-74
2021/04/10 05:57:31;;;;;;;1.67;1.10;;;11.40;40.70;;;;;;5038399;28;37771;-74
2021/04/10 05:59:58;;;;;;;1.63;1.10;;;11.40;41.00;;;;;;5056528;28;37157;-74
2021/04/10 06:02:26;;;;;;;3.30;1.50;;;11.40;41.10;;;;;;5069942;28;40561;-73
2021/04/10 06:04:56;;;;;;;1.63;1.13;;;11.40;40.80;;;;;;5053553;28;39071;-73
2021/04/10 06:07:24;;;;;;;1.90;1.17;;;11.40;41.00;;;;;;5065157;28;38017;-73
2021/04/10 06:09:51;;;;;;;2.03;1.10;;;11.40;41.00;;;;;;5052374;28;36194;-74
2021/04/10 06:12:18;;;;;;;2.80;1.57;;;11.40;41.00;;;;;;5063166;28;40735;-74
2021/04/10 06:14:45;;;;;;;6.37;1.93;;;11.30;41.10;;;;;;5044498;28;37738;-74
2021/04/10 06:17:13;;;;;;;5.60;1.80;;;11.30;41.90;;;;;;5075731;28;37721;-73
2021/04/10 06:19:41;;;;;;;3.10;1.80;;;11.30;43.30;;;;;;5064401;28;37143;-74
2021/04/10 06:22:10;;;;;;;3.23;1.73;;;11.30;43.60;;;;;;5033591;28;40289;-73
2021/04/10 06:24:37;;;;;;;5.13;1.70;;;11.40;44.50;;;;;;5067812;28;38917;-73
2021/04/10 06:27:05;;;;;;;2.20;1.50;;;11.40;44.50;;;;;;5047125;28;37000;-73
2021/04/10 06:29:34;;;;;;;2.07;1.67;;;11.30;44.30;;;;;;5051658;28;36719;-73
2021/04/10 06:32:02;;;;;;;1.70;1.40;;;11.30;44.40;;;;;;5052970;28;40318;-72
2021/04/10 06:34:29;;;;;;;2.33;1.40;;;11.30;44.70;;;;;;5043195;28;38874;-72
2021/04/10 06:36:56;;;;;;;4.77;1.80;;;11.30;45.00;;;;;;5068486;28;37901;-74
2021/04/10 06:39:23;;;;;;;2.73;1.50;;;11.30;45.20;;;;;;5037629;28;35929;-73
2021/04/10 06:41:51;;;;;;;1.87;1.60;;;11.30;44.20;;;;;;5022385;28;39164;-73
2021/04/10 06:44:18;;;;;;;4.67;1.83;;;11.30;44.80;;;;;;5039932;28;39064;-74
2021/04/10 06:46:48;;;;;;;3.33;1.90;;;11.30;45.60;;;;;;5039376;28;36956;-74
2021/04/10 06:49:18;;;;;;;2.73;1.70;;;11.20;46.00;;;;;;5032496;28;36319;-75
2021/04/10 06:51:46;;;;;;;4.80;2.10;;;11.20;46.10;;;;;;5057862;28;39220;-73
2021/04/10 06:54:17;;;;;;;5.70;2.00;;;11.20;46.10;;;;;;5052981;28;39342;-73
2021/04/10 06:56:55;;;;;;;4.47;2.43;;;11.20;45.80;;;;;;5028133;28;36727;-74
2021/04/10 06:59:29;;;;;;;3.27;1.60;;;11.20;45.60;;;;;;5035283;28;37147;-75
2021/04/10 07:01:57;;;;;;;4.73;1.90;;;11.20;44.70;;;;;;5041414;28;38748;-75
2021/04/10 07:04:26;;;;;;;8.03;1.70;;;11.10;44.50;;;;;;5050494;28;38529;-73
2021/04/10 07:06:53;;;;;;;2.90;1.40;;;11.20;44.00;;;;;;5043453;28;36262;-73
2021/04/10 07:09:24;;;;;;;4.13;1.40;;;11.20;43.60;;;;;;5069314;28;35871;-73
2021/04/10 07:11:54;;;;;;;2.30;1.27;;;11.20;43.40;;;;;;5041848;28;39855;-72
2021/04/10 07:14:21;;;;;;;2.97;1.73;;;11.30;43.00;;;;;;5049873;28;38693;-73
2021/04/10 07:16:49;;;;;;;2.73;1.20;;;11.40;43.00;;;;;;5041105;28;38655;-72
2021/04/10 07:19:16;;;;;;;3.83;1.20;;;11.40;43.00;;;;;;5045684;28;37891;-73
2021/04/10 07:22:02;;;;;;;2.37;1.37;;;11.40;42.80;;;;;;5028411;28;39177;-73
2021/04/10 07:24:41;;;;;;;6.47;1.50;;;11.40;42.30;;;;;;5053328;28;38768;-73
2021/04/10 07:27:10;;;;;;;1.67;1.10;;;11.30;43.40;;;;;;5047568;28;38034;-73
2021/04/10 07:29:39;;;;;;;5.33;1.80;;;11.30;43.90;;;;;;5055738;28;37224;-73
2021/04/10 07:32:32;;;;;;;3.40;1.43;;;11.30;44.60;;;;;;5030467;28;38298;-72
2021/04/10 07:35:05;;;;;;;7.40;1.87;;;11.30;44.70;;;;;;5040478;28;39034;-73
2021/04/10 07:37:38;;;;;;;8.00;2.60;;;11.30;45.00;;;;;;5055758;28;38609;-72
2021/04/10 07:40:09;;;;;;;5.80;2.20;;;11.40;45.10;;;;;;5054079;28;37663;-72
2021/04/10 07:42:39;;;;;;;4.30;2.40;;;11.40;45.20;;;;;;5034641;28;38308;-73
2021/04/10 07:45:24;;;;;;;8.20;3.57;;;11.50;44.90;;;;;;5056284;28;38850;-73
2021/04/10 07:48:02;;;;;;;3.10;2.40;;;11.50;45.10;;;;;;5078478;28;36810;-73
2021/04/10 07:50:33;;;;;;;3.00;2.10;;;11.50;45.60;;;;;;5040692;28;35988;-72
2021/04/10 07:53:22;;;;;;;3.60;2.53;;;11.40;45.60;;;;;;5046065;28;39699;-74
2021/04/10 07:55:51;;;;;;;5.53;1.87;;;11.50;45.00;;;;;;5055226;28;37517;-72
2021/04/10 07:58:26;;;;;;;1.93;1.43;;;11.50;44.60;;;;;;5034804;28;37382;-73
2021/04/10 08:00:57;;;;;;;2.77;1.50;;;11.50;44.40;;;;;;5077138;28;36012;-73
2021/04/10 08:03:30;;;;;;;3.43;1.70;;;11.60;44.80;;;;;;5041044;28;38143;-73
2021/04/10 08:06:13;;;;;;;4.20;2.00;;;11.60;44.30;;;;;;5064797;28;39081;-73
2021/04/10 08:08:50;;;;;;;4.23;1.70;;;11.70;44.60;;;;;;5072022;28;38225;-73
2021/04/10 08:11:36;;;;;;;2.40;1.70;;;11.80;44.60;;;;;;5054025;28;35998;-72
2021/04/10 08:14:06;;;;;;;5.50;2.30;;;11.90;44.30;;;;;;5034149;28;40310;-72
2021/04/10 08:16:38;;;;;;;3.30;1.57;;;12.00;43.80;;;;;;5050830;28;39369;-74
2021/04/10 08:19:06;;;;;;;7.70;1.70;;;12.10;44.00;;;;;;5057011;28;38149;-75
2021/04/10 08:21:48;;;;;;;2.83;1.80;;;12.20;43.80;;;;;;5034165;28;36465;-74
2021/04/10 08:24:36;;;;;;;2.50;1.40;;;12.30;44.10;;;;;;5031699;28;38374;-74
2021/04/10 08:27:07;;;;;;;2.93;1.80;;;12.40;44.60;;;;;;5021160;28;37860;-74
2021/04/10 08:29:36;;;;;;;6.90;2.27;;;12.40;44.90;;;;;;5066066;28;38178;-74
2021/04/10 08:32:07;;;;;;;2.30;1.57;;;12.40;44.10;;;;;;5050863;28;37677;-74
2021/04/10 08:34:34;;;;;;;3.30;1.50;;;12.50;44.50;;;;;;5060545;28;40819;-74
2021/04/10 08:37:07;;;;;;;4.03;2.07;;;12.50;43.60;;;;;;5066139;28;39159;-74
2021/04/10 08:39:38;;;;;;;4.10;2.20;;;12.50;43.70;;;;;;5035389;28;36509;-74
2021/04/10 08:42:08;;;;;;;2.57;1.60;;;12.50;44.00;;;;;;5041038;28;37047;-74
2021/04/10 08:44:39;;;;;;;4.80;1.80;;;12.50;43.70;;;;;;5068266;28;40323;-74
2021/04/10 08:47:07;;;;;;;4.93;2.50;;;12.60;44.00;;;;;;5058509;28;39767;-74
2021/04/10 08:49:42;;;;;;;3.13;2.10;;;12.70;43.50;;;;;;5038070;28;37026;-74
2021/04/10 08:52:12;;;;;;;5.00;2.47;;;12.80;43.40;;;;;;5035880;28;37409;-74
2021/04/10 08:54:42;;;;;;;3.50;2.10;;;13.00;43.30;;;;;;5017040;28;39148;-75
2021/04/10 08:57:12;;;;;;;3.80;2.23;;;13.20;42.40;;;;;;5055104;28;39076;-74
2021/04/10 08:59:42;;;;;;;4.27;1.67;;;13.40;42.40;;;;;;5055190;28;38714;-73
2021/04/10 09:02:20;;;;;;;4.33;2.00;;;13.60;40.90;;;;;;5039165;28;35951;-75
2021/04/10 09:04:59;;;;;;;5.57;2.33;;;13.70;41.10;;;;;;5064934;28;39888;-75
2021/04/10 09:08:04;;;;;;;3.83;1.73;;;13.90;40.50;;;;;;5058503;28;38006;-76
2021/04/10 09:10:44;;;;;;;2.50;1.50;;;14.10;40.10;;;;;;5056239;28;37791;-74
2021/04/10 09:13:28;;;;;;;2.30;1.67;;;14.40;39.70;;;;;;5066482;28;37949;-74
2021/04/10 09:16:23;;;;;;;2.80;1.70;;;14.70;39.40;;;;;;5059057;28;39246;-74
2021/04/10 09:18:54;;;;;;;4.70;2.10;;;14.70;38.70;;;;;;5056678;28;38875;-74
2021/04/10 09:21:49;;;;;;;5.10;1.90;;;14.70;38.50;;;;;;5049064;28;39013;-75
2021/04/10 09:24:23;;;;;;;4.07;2.13;;;14.80;39.20;;;;;;5048601;28;37845;-74
2021/04/10 09:27:05;;;;;;;2.27;1.43;;;14.90;38.80;;;;;;5053691;28;39624;-75
2021/04/10 09:29:43;;;;;;;6.47;2.00;;;15.00;38.70;;;;;;5048780;28;39705;-75
2021/04/10 09:32:14;;;;;;;6.77;2.00;;;15.00;38.90;;;;;;5034643;28;38110;-75
2021/04/10 09:34:51;;;;;;;3.63;1.90;;;15.00;38.50;;;;;;5011385;28;656015;-75
2021/04/10 09:37:49;;;;;;;5.07;2.40;;;15.20;37.50;;;;;;5039528;28;40669;-75
2021/04/10 09:40:32;;;;;;;3.17;2.00;;;15.30;37.30;;;;;;5048925;28;39713;-76
2021/04/10 09:43:08;;;;;;;3.90;1.97;;;15.40;36.80;;;;;;5066963;28;39616;-76
2021/04/10 09:45:39;;;;;;;4.70;1.97;;;15.60;36.20;;;;;;5007138;28;36046;-76
2021/04/10 09:48:26;;;;;;;6.40;1.77;;;15.60;37.10;;;;;;5051090;28;38390;-76
2021/04/10 09:51:12;;;;;;;2.60;1.57;;;15.60;35.30;;;;;;5053450;28;39002;-75
2021/04/10 09:53:44;;;;;;;2.83;1.50;;;15.70;36.30;;;;;;5035516;28;37427;-75
2021/04/10 09:56:15;;;;;;;4.50;1.73;;;15.80;36.00;;;;;;5054310;28;37694;-75
2021/04/10 09:58:47;;;;;;;6.30;2.23;;;15.90;36.10;;;;;;5051599;28;40456;-75
2021/04/10 10:01:23;;;;;;;3.50;1.70;;;16.10;36.60;;;;;;5045425;28;38820;-75
2021/04/10 10:03:51;;;;;;;2.30;2.00;;;16.40;36.00;;;;;;5061964;28;37965;-75
2021/04/10 10:06:31;;;;;;;2.97;1.93;;;16.70;36.00;;;;;;5046558;28;37859;-75
2021/04/10 10:09:00;;;;;;;4.27;1.80;;;16.90;34.80;;;;;;5055703;28;40226;-75
2021/04/10 10:11:28;;;;;;;2.13;1.63;;;17.10;34.30;;;;;;5067115;28;39716;-76
2021/04/10 10:13:56;;;;;;;2.47;2.27;;;17.30;34.00;;;;;;5054667;28;37933;-76
2021/04/10 10:16:30;;;;;;;5.20;3.67;;;17.50;33.30;;;;;;5041644;28;35852;-75
2021/04/10 10:18:58;;;;;;;2.90;1.97;;;17.90;33.60;;;;;;5054264;28;39578;-75
2021/04/10 10:21:26;;;;;;;4.63;1.90;;;18.10;33.30;;;;;;5055068;28;39320;-74
2021/04/10 10:23:55;;;;;;;2.80;1.30;;;18.40;32.70;;;;;;5059973;28;38289;-75
2021/04/10 10:26:25;;;;;;;3.37;1.70;;;18.50;31.00;;;;;;5067489;28;37436;-75
2021/04/10 10:29:00;;;;;;;2.53;1.47;;;18.80;31.40;;;;;;5037270;28;38050;-76
2021/04/10 10:31:32;;;;;;;7.30;2.00;;;19.10;30.00;;;;;;5053240;28;40233;-74
2021/04/10 10:34:07;;;;;;;3.13;2.03;;;18.90;31.10;;;;;;5033419;28;36736;-75
2021/04/10 10:36:37;;;;;;;5.53;1.97;;;19.00;31.30;;;;;;5072029;28;38140;-75
2021/04/10 10:39:10;;;;;;;2.00;1.60;;;18.80;31.00;;;;;;5050750;28;39454;-74
2021/04/10 10:41:45;;;;;;;2.50;1.63;;;18.80;31.50;;;;;;5060507;28;39632;-75
2021/04/10 10:44:13;;;;;;;4.03;2.10;;;18.70;31.00;;;;;;5046390;28;38174;-74
2021/04/10 10:46:41;;;;;;;5.07;1.93;;;18.60;30.80;;;;;;5048299;28;35789;-74
2021/04/10 10:49:09;;;;;;;3.37;2.50;;;18.30;31.30;;;;;;5055217;28;40178;-74
2021/04/10 10:51:37;;;;;;;4.27;1.73;;;18.10;31.60;;;;;;5069330;28;39292;-75
2021/04/10 10:54:06;;;;;;;2.13;1.90;;;17.90;31.70;;;;;;5061985;28;38382;-75
2021/04/10 10:56:34;;;;;;;2.43;1.63;;;17.70;32.10;;;;;;5049909;28;36332;-75
2021/04/10 10:59:03;;;;;;;1.90;1.70;;;17.40;32.40;;;;;;5067488;28;39922;-75
2021/04/10 11:01:33;;;;;;;5.93;2.17;;;17.20;33.00;;;;;;5046679;28;38039;-74
2021/04/10 11:04:03;;;;;;;4.33;2.20;;;17.00;33.70;;;;;;5065182;28;38298;-76
2021/04/10 11:06:33;;;;;;;3.50;1.87;;;16.80;33.50;;;;;;5056172;28;37083;-75
2021/04/10 11:09:06;;;;;;;2.77;1.93;;;16.70;33.10;;;;;;5062527;28;41089;-74
2021/04/10 11:11:36;;;;;;;2.13;1.70;;;16.70;33.00;;;;;;5060878;28;40470;-75
2021/04/10 11:14:04;;;;;;;3.37;2.00;;;16.60;33.30;;;;;;5041473;28;37006;-75
2021/04/10 11:16:32;;;;;;;6.40;1.90;;;16.60;33.30;;;;;;5060228;28;38326;-75
2021/04/10 11:19:00;;;;;;;4.93;2.30;;;16.50;34.10;;;;;;5053976;28;40547;-75
2021/04/10 11:21:30;;;;;;;4.10;2.30;;;16.40;34.20;;;;;;5045417;28;37586;-76
2021/04/10 11:24:03;;;;;;;3.20;1.70;;;16.50;33.90;;;;;;5043560;28;36755;-76
2021/04/10 11:26:44;;;;;;;3.60;1.90;;;16.50;33.40;;;;;;5042202;28;35915;-74
2021/04/10 11:29:23;;;;;;;3.47;1.60;;;16.60;32.50;;;;;;5076552;28;39837;-75
2021/04/10 11:32:14;;;;;;;4.50;2.00;;;16.70;33.10;;;;;;5053353;28;39056;-75
2021/04/10 11:34:51;;;;;;;3.80;1.97;;;17.00;33.00;;;;;;5055082;28;38731;-75
2021/04/10 11:37:21;;;;;;;3.67;1.70;;;17.10;32.00;;;;;;5041037;28;36105;-75
2021/04/10 11:39:51;;;;;;;2.40;2.00;;;17.20;32.10;;;;;;5074009;28;40263;-75
2021/04/10 11:42:27;;;;;;;4.73;2.23;;;17.30;31.90;;;;;;5057921;28;38742;-73
2021/04/10 11:44:56;;;;;;;7.40;2.23;;;17.30;31.40;;;;;;5054697;28;38013;-73
2021/04/10 11:47:25;;;;;;;2.90;2.40;;;17.30;31.50;;;;;;5037843;28;35826;-74
2021/04/10 11:49:53;;;;;;;3.73;1.90;;;17.40;31.20;;;;;;5046588;28;38528;-74
2021/04/10 11:52:25;;;;;;;3.57;2.10;;;17.50;31.90;;;;;;5082349;28;37785;-74
2021/04/10 11:55:03;;;;;;;3.53;1.67;;;17.70;32.10;;;;;;5063096;28;36563;-75
2021/04/10 11:57:35;;;;;;;8.53;1.80;;;17.80;31.40;;;;;;5075196;28;37464;-76
2021/04/10 12:00:14;;;;;;;4.67;1.73;;;18.10;30.40;;;;;;5074827;28;39928;-72
2021/04/10 12:02:45;;;;;;;2.17;1.80;;;18.40;30.70;;;;;;5060210;28;38610;-73
2021/04/10 12:05:25;;;;;;;2.90;1.67;;;19.00;29.10;;;;;;5037405;28;37016;-73
2021/04/10 12:08:25;;;;;;;1.60;1.27;;;19.80;29.40;;;;;;5068998;28;37088;-74
2021/04/10 12:10:55;;;;;;;5.27;1.90;;;20.50;27.90;;;;;;5040741;28;39973;-73
2021/04/10 12:13:24;;;;;;;1.77;1.37;;;21.00;28.10;;;;;;5061327;28;39339;-74
2021/04/10 12:15:54;;;;;;;1.97;1.60;;;21.30;26.70;;;;;;5071542;28;39164;-74
2021/04/10 12:18:23;;;;;;;3.00;1.50;;;21.20;25.90;;;;;;5044140;28;36997;-74
2021/04/10 12:20:51;;;;;;;1.40;1.20;;;21.10;26.20;;;;;;5045489;28;38551;-72
2021/04/10 12:23:19;;;;;;;3.70;1.80;;;20.60;27.10;;;;;;5063393;28;39195;-74
2021/04/10 12:25:47;;;;;;;2.30;1.63;;;20.20;27.20;;;;;;5058074;28;38162;-74
2021/04/10 12:28:15;;;;;;;2.00;1.60;;;19.80;26.90;;;;;;5052263;28;37191;-74
2021/04/10 12:30:42;;;;;;;2.40;1.50;;;19.40;26.60;;;;;;5063922;28;41557;-74
2021/04/10 12:33:09;;;;;;;17.83;5.97;;;19.00;27.30;;;;;;5062294;28;40265;-72
2021/04/10 12:35:39;;;;;;;3.23;1.87;;;19.00;27.30;;;;;;5058937;28;37828;-72
2021/04/10 12:38:06;;;;;;;5.83;2.80;;;19.10;27.80;;;;;;5047685;28;35472;-71
2021/04/10 12:40:33;;;;;;;3.13;1.77;;;19.10;27.40;;;;;;5045533;28;40744;-74
2021/04/10 12:43:01;;;;;;;4.33;1.73;;;19.10;27.90;;;;;;5063299;28;39719;-74
2021/04/10 12:45:28;;;;;;;4.30;1.60;;;19.40;27.30;;;;;;5066291;28;38140;-74
2021/04/10 12:47:56;;;;;;;2.73;1.30;;;19.60;27.20;;;;;;5065150;28;37510;-72
2021/04/10 12:50:25;;;;;;;4.10;1.70;;;19.90;26.50;;;;;;5062296;28;39270;-73
2021/04/10 12:52:53;;;;;;;6.53;2.40;;;20.00;27.00;;;;;;5050310;28;37813;-74
2021/04/10 12:55:22;;;;;;;1.97;1.20;;;20.20;27.20;;;;;;5067284;28;38269;-75
2021/04/10 12:57:49;;;;;;;8.00;7.30;;;20.40;26.10;;;;;;5066923;28;37651;-73
2021/04/10 13:00:18;;;;;;;2.33;1.40;;;20.50;25.60;;;;;;5058246;28;39575;-72
2021/04/10 13:02:47;;;;;;;2.73;1.80;;;20.60;25.90;;;;;;5064288;28;38433;-73
2021/04/10 13:05:15;;;;;;;2.10;1.50;;;20.60;25.90;;;;;;5059873;28;37730;-73
2021/04/10 13:07:42;;;;;;;1.40;1.10;;;20.50;25.20;;;;;;5060149;28;37960;-73